createdAt,value
2018-09-22T00:00:17.652Z,100471.19
2018-09-22T00:02:48.538Z,100474.72
2018-09-22T00:05:19.479Z,100476.86
2018-09-22T00:07:50.441Z,100473.90
2018-09-22T00:10:21.484Z,100474.35
2018-09-22T00:12:52.477Z,100469.38
2018-09-22T00:15:23.515Z,100477.23
2018-09-22T00:17:54.468Z,100489.98
2018-09-22T00:20:25.489Z,100488.52
2018-09-22T00:22:56.481Z,100498.14
2018-09-22T00:25:27.495Z,100497.16
2018-09-22T00:27:58.553Z,100497.50
2018-09-22T00:30:29.489Z,100489.25
2018-09-22T00:33:00.804Z,100497.50
2018-09-22T00:35:31.573Z,100490.05
2018-09-22T00:38:02.496Z,100496.55
2018-09-22T00:40:33.472Z,100499.73
2018-09-22T00:43:04.505Z,100500.86
2018-09-22T00:45:35.471Z,100494.33
2018-09-22T00:48:06.523Z,100505.88
2018-09-22T00:50:37.476Z,100512.30
2018-09-22T00:53:08.908Z,100498.28
2018-09-22T00:55:39.773Z,100499.61
2018-09-22T00:58:10.604Z,100511.55
2018-09-22T01:00:41.515Z,100514.02
2018-09-22T01:03:12.490Z,100514.11
2018-09-22T01:05:43.505Z,100514.68
2018-09-22T01:08:14.468Z,100514.72
2018-09-22T01:10:45.481Z,100517.71
2018-09-22T01:13:16.557Z,100524.23
2018-09-22T01:15:50.493Z,100527.66
2018-09-22T01:18:21.444Z,100522.91
2018-09-22T01:20:52.437Z,100527.56
2018-09-22T01:23:23.484Z,100527.50
2018-09-22T01:25:54.428Z,100535.66
2018-09-22T01:28:25.478Z,100541.16
2018-09-22T01:30:56.457Z,100548.02
2018-09-22T01:33:27.453Z,100548.02
2018-09-22T01:35:58.481Z,100546.86
2018-09-22T01:38:29.456Z,100555.63
2018-09-22T01:41:00.446Z,100551.73
2018-09-22T01:43:31.457Z,100544.91
2018-09-22T01:46:02.425Z,100548.27
2018-09-22T01:48:33.449Z,100541.45
2018-09-22T01:51:04.500Z,100544.19
2018-09-22T01:53:35.459Z,100550.03
2018-09-22T01:56:06.457Z,100548.17
2018-09-22T01:58:37.436Z,100543.85
2018-09-22T02:01:08.445Z,100538.89
2018-09-22T02:03:39.437Z,100549.43
2018-09-22T02:06:10.421Z,100554.38
2018-09-22T02:08:41.433Z,100562.89
2018-09-22T02:11:12.400Z,100563.03
2018-09-22T02:13:43.499Z,100570.20
2018-09-22T02:16:14.442Z,100577.52
2018-09-22T02:18:45.436Z,100569.94
2018-09-22T02:21:16.433Z,100571.43
2018-09-22T02:23:47.481Z,100573.06
2018-09-22T02:26:18.429Z,100580.03
2018-09-22T02:28:49.449Z,100585.38
2018-09-22T02:31:20.455Z,100584.92
2018-09-22T02:33:51.460Z,100582.89
2018-09-22T02:36:22.453Z,100589.78
2018-09-22T02:38:53.441Z,100589.78
2018-09-22T02:41:24.411Z,100586.66
2018-09-22T02:43:55.513Z,100591.08
2018-09-22T02:46:26.434Z,100593.97
2018-09-22T02:48:57.436Z,100598.45
2018-09-22T02:51:28.448Z,100599.72
2018-09-22T02:53:59.444Z,100609.67
2018-09-22T02:56:30.471Z,100620.32
2018-09-22T02:59:01.457Z,100618.69
2018-09-22T03:01:32.426Z,100630.87
2018-09-22T03:04:03.733Z,100618.34
2018-09-22T03:06:34.551Z,100626.19
2018-09-22T03:09:07.652Z,100639.45
2018-09-22T03:11:38.466Z,100646.05
2018-09-22T03:14:10.014Z,100641.04
2018-09-22T03:16:41.550Z,100644.77
2018-09-22T03:19:12.463Z,100646.16
2018-09-22T03:21:43.463Z,100648.72
2018-09-22T03:24:14.474Z,100644.03
2018-09-22T03:26:45.461Z,100647.42
2018-09-22T03:29:16.417Z,100630.86
2018-09-22T03:31:47.436Z,100625.45
2018-09-22T03:34:18.466Z,100625.31
2018-09-22T03:39:33.355Z,100622.34
2018-09-22T03:42:04.336Z,100628.15
2018-09-22T03:44:35.390Z,100635.20
2018-09-22T03:47:06.655Z,100610.09
2018-09-22T03:49:37.477Z,100641.88
2018-09-22T03:52:08.457Z,100628.50
2018-09-22T03:54:39.450Z,100624.59
2018-09-22T03:57:11.508Z,100613.67
2018-09-22T03:59:42.449Z,100622.98
2018-09-22T04:02:13.421Z,100617.95
2018-09-22T04:04:44.400Z,100628.41
2018-09-22T04:07:15.405Z,100634.33
2018-09-22T04:09:46.409Z,100635.78
2018-09-22T04:12:17.417Z,100636.23
2018-09-22T04:14:48.446Z,100653.13
2018-09-22T04:17:19.476Z,100639.16
2018-09-22T04:19:50.441Z,100626.13
2018-09-22T04:22:21.461Z,100623.97
2018-09-22T04:24:52.481Z,100634.80
2018-09-22T04:27:23.434Z,100640.10
2018-09-22T04:29:54.444Z,100643.73
2018-09-22T04:32:25.462Z,100645.20
2018-09-22T04:34:59.293Z,100646.59
2018-09-22T04:37:30.345Z,100645.02
2018-09-22T04:40:01.382Z,100648.80
2018-09-22T04:42:32.417Z,100647.19
2018-09-22T04:45:03.441Z,100650.97
2018-09-22T04:47:34.464Z,100649.75
2018-09-22T04:52:45.465Z,100648.88
2018-09-22T04:55:16.461Z,100656.27
2018-09-22T04:57:47.445Z,100661.55
2018-09-22T05:00:18.465Z,100665.16
2018-09-22T05:02:49.468Z,100665.87
2018-09-22T05:05:20.461Z,100679.72
2018-09-22T05:07:51.472Z,100674.73
2018-09-22T05:10:22.449Z,100687.15
2018-09-22T05:12:53.443Z,100695.06
2018-09-22T05:15:24.469Z,100685.72
2018-09-22T05:17:55.410Z,100690.03
2018-09-22T05:20:26.450Z,100699.86
2018-09-22T05:22:57.439Z,100705.34
2018-09-22T05:25:28.422Z,100705.02
2018-09-22T05:27:59.460Z,100702.33
2018-09-22T05:30:30.480Z,100713.29
2018-09-22T05:33:01.460Z,100705.68
2018-09-22T05:35:32.483Z,100721.00
2018-09-22T05:38:03.444Z,100711.24
2018-09-22T05:40:34.465Z,100719.18
2018-09-22T05:43:05.433Z,100721.73
2018-09-22T05:45:36.447Z,100715.44
2018-09-22T05:48:07.477Z,100726.67
2018-09-22T05:50:38.437Z,100722.75
2018-09-22T05:55:52.297Z,100726.04
2018-09-22T05:58:23.382Z,100732.91
2018-09-22T06:00:54.465Z,100740.84
2018-09-22T06:03:26.075Z,100742.27
2018-09-22T06:05:57.228Z,100739.36
2018-09-22T06:08:28.341Z,100745.91
2018-09-22T06:10:59.311Z,100739.28
2018-09-22T06:13:30.356Z,100737.27
2018-09-22T06:16:01.349Z,100741.75
2018-09-22T06:18:32.364Z,100746.53
2018-09-22T06:21:03.469Z,100759.88
2018-09-22T06:23:34.587Z,100767.02
2018-09-22T06:26:05.527Z,100770.96
2018-09-22T06:28:36.472Z,100776.97
2018-09-22T06:31:07.507Z,100760.14
2018-09-22T06:33:38.445Z,100766.91
2018-09-22T06:36:09.496Z,100767.70
2018-09-22T06:38:40.438Z,100771.59
2018-09-22T06:41:11.417Z,100769.23
2018-09-22T06:43:42.461Z,100765.04
2018-09-22T06:46:13.483Z,100761.45
2018-09-22T06:48:45.400Z,100760.64
2018-09-22T06:51:16.436Z,100765.66
2018-09-22T06:53:47.646Z,100762.20
2018-09-22T06:56:18.577Z,100777.06
2018-09-22T06:58:49.509Z,100771.49
2018-09-22T07:01:20.608Z,100771.28
2018-09-22T07:03:51.645Z,100779.16
2018-09-22T07:06:22.630Z,100786.23
2018-09-22T07:08:53.509Z,100789.02
2018-09-22T07:11:24.484Z,100771.53
2018-09-22T07:13:55.580Z,100773.27
2018-09-22T07:16:26.494Z,100755.95
2018-09-22T07:18:57.452Z,100752.78
2018-09-22T07:21:33.523Z,100759.88
2018-09-22T07:24:04.525Z,100755.87
2018-09-22T07:26:35.663Z,100750.95
2018-09-22T07:29:06.587Z,100747.90
2018-09-22T07:31:37.497Z,100751.55
2018-09-22T07:34:08.497Z,100761.38
2018-09-22T07:36:39.473Z,100763.90
2018-09-22T07:39:12.578Z,100761.12
2018-09-22T07:41:46.777Z,100763.61
2018-09-22T07:44:17.633Z,100765.53
2018-09-22T07:46:48.626Z,100769.85
2018-09-22T07:49:19.542Z,100777.81
2018-09-22T07:51:50.569Z,100773.88
2018-09-22T07:54:21.521Z,100769.66
2018-09-22T07:56:52.482Z,100763.45
2018-09-22T07:59:23.470Z,100763.61
2018-09-22T08:01:54.515Z,100768.50
2018-09-22T08:04:25.464Z,100769.41
2018-09-22T08:06:56.518Z,100778.91
2018-09-22T08:09:27.528Z,100789.99
2018-09-22T08:11:58.514Z,100788.46
2018-09-22T08:14:29.462Z,100792.13
2018-09-22T08:17:00.465Z,100793.11
2018-09-22T08:19:31.458Z,100790.38
2018-09-22T08:22:02.522Z,100802.06
2018-09-22T08:24:33.480Z,100802.98
2018-09-22T08:27:04.477Z,100804.88
2018-09-22T08:29:35.517Z,100798.59
2018-09-22T08:32:06.517Z,100810.64
2018-09-22T08:34:37.537Z,100804.05
2018-09-22T08:37:08.768Z,100801.86
2018-09-22T08:39:39.456Z,100793.08
2018-09-22T08:42:10.441Z,100795.13
2018-09-22T08:44:41.458Z,100784.20
2018-09-22T08:47:12.577Z,100781.82
2018-09-22T08:49:43.552Z,100773.23
2018-09-22T08:52:14.474Z,100764.30
2018-09-22T08:54:45.486Z,100750.29
2018-09-22T08:57:16.457Z,100756.05
2018-09-22T08:59:47.461Z,100758.41
2018-09-22T09:02:18.503Z,100768.77
2018-09-22T09:04:49.500Z,100764.39
2018-09-22T09:07:20.569Z,100778.80
2018-09-22T09:09:51.476Z,100778.47
2018-09-22T09:12:24.497Z,100784.03
2018-09-22T09:14:55.689Z,100786.45
2018-09-22T09:17:26.575Z,100787.34
2018-09-22T09:19:57.510Z,100768.54
2018-09-22T09:22:28.459Z,100768.66
2018-09-22T09:24:59.457Z,100762.52
2018-09-22T09:27:30.521Z,100745.28
2018-09-22T09:30:01.538Z,100741.73
2018-09-22T09:32:32.542Z,100725.51
2018-09-22T09:35:03.477Z,100710.96
2018-09-22T09:37:34.661Z,100722.66
2018-09-22T09:40:05.558Z,100723.96
2018-09-22T09:42:36.485Z,100742.91
2018-09-22T09:45:07.498Z,100731.03
2018-09-22T09:47:38.513Z,100720.86
2018-09-22T09:50:09.457Z,100730.45
2018-09-22T09:52:40.526Z,100718.04
2018-09-22T09:55:11.469Z,100705.79
2018-09-22T09:57:42.476Z,100694.37
2018-09-22T10:00:13.494Z,100700.84
2018-09-22T10:02:44.518Z,100709.91
2018-09-22T10:05:15.547Z,100711.69
2018-09-22T10:07:46.522Z,100706.99
2018-09-22T10:10:17.543Z,100708.45
2018-09-22T10:12:48.517Z,100718.66
2018-09-22T10:15:19.775Z,100713.92
2018-09-22T10:17:50.766Z,100710.95
2018-09-22T10:20:21.627Z,100711.45
2018-09-22T10:22:52.483Z,100701.94
2018-09-22T10:25:23.479Z,100702.34
2018-09-22T10:27:54.521Z,100697.96
2018-09-22T10:30:25.537Z,100709.10
2018-09-22T10:32:56.497Z,100697.47
2018-09-22T10:35:27.497Z,100694.78
2018-09-22T10:37:58.496Z,100678.91
2018-09-22T10:40:29.501Z,100687.92
2018-09-22T10:43:00.530Z,100679.36
2018-09-22T10:45:31.534Z,100680.92
2018-09-22T10:48:02.522Z,100659.41
2018-09-22T10:50:33.522Z,100653.61
2018-09-22T10:53:04.845Z,100648.69
2018-09-22T10:55:35.601Z,100658.77
2018-09-22T10:58:06.638Z,100652.22
2018-09-22T11:00:37.621Z,100651.19
2018-09-22T11:03:08.652Z,100651.13
2018-09-22T11:05:39.465Z,100646.73
2018-09-22T11:08:10.521Z,100648.38
2018-09-22T11:10:41.480Z,100651.25
2018-09-22T11:13:12.578Z,100643.75
2018-09-22T11:15:43.571Z,100638.59
2018-09-22T11:18:14.602Z,100650.13
2018-09-22T11:20:45.488Z,100646.27
2018-09-22T11:23:16.594Z,100637.89
2018-09-22T11:25:47.677Z,100620.68
2018-09-22T11:28:18.580Z,100623.80
2018-09-22T11:30:49.479Z,100621.92
2018-09-22T11:33:21.406Z,100616.09
2018-09-22T11:35:52.490Z,100611.44
2018-09-22T11:38:23.527Z,100611.13
2018-09-22T11:40:54.501Z,100604.53
2018-09-22T11:43:25.773Z,100609.95
2018-09-22T11:45:56.608Z,100599.87
2018-09-22T11:48:27.505Z,100596.87
2018-09-22T11:50:58.492Z,100593.69
2018-09-22T11:53:29.516Z,100589.27
2018-09-22T11:56:00.497Z,100602.66
2018-09-22T11:58:31.517Z,100598.91
2018-09-22T12:01:02.490Z,100587.98
2018-09-22T12:03:33.523Z,100583.50
2018-09-22T12:06:04.589Z,100574.08
2018-09-22T12:08:35.534Z,100565.55
2018-09-22T12:11:06.542Z,100569.69
2018-09-22T12:13:37.503Z,100563.22
2018-09-22T12:16:08.568Z,100574.66
2018-09-22T12:18:39.530Z,100583.50
2018-09-22T12:21:10.510Z,100554.84
2018-09-22T12:23:41.524Z,100547.48
2018-09-22T12:26:12.477Z,100547.58
2018-09-22T12:28:43.457Z,100542.82
2018-09-22T12:31:14.503Z,100544.39
2018-09-22T12:33:45.522Z,100529.11
2018-09-22T12:36:16.490Z,100525.91
2018-09-22T12:38:48.293Z,100533.44
2018-09-22T12:41:19.361Z,100529.83
2018-09-22T12:43:50.362Z,100522.48
2018-09-22T12:46:21.405Z,100512.95
2018-09-22T12:48:52.517Z,100512.73
2018-09-22T12:51:23.691Z,100516.20
2018-09-22T12:53:54.569Z,100521.98
2018-09-22T12:56:25.491Z,100524.58
2018-09-22T12:58:56.528Z,100522.32
2018-09-22T13:01:27.517Z,100529.14
2018-09-22T13:03:58.519Z,100531.79
2018-09-22T13:06:29.601Z,100535.84
2018-09-22T13:09:00.521Z,100530.67
2018-09-22T13:11:31.498Z,100528.51
2018-09-22T13:14:02.469Z,100533.99
2018-09-22T13:16:33.711Z,100531.39
2018-09-22T13:19:04.553Z,100529.88
2018-09-22T13:21:35.479Z,100532.25
2018-09-22T13:24:06.530Z,100529.04
2018-09-22T13:26:37.555Z,100528.41
2018-09-22T13:29:08.526Z,100531.97
2018-09-22T13:31:39.488Z,100541.70
2018-09-22T13:34:10.489Z,100531.17
2018-09-22T13:36:41.474Z,100519.36
2018-09-22T13:39:13.546Z,100529.48
2018-09-22T13:41:44.471Z,100521.04
2018-09-22T13:44:15.509Z,100516.86
2018-09-22T13:46:46.462Z,100514.05
2018-09-22T13:49:17.510Z,100500.52
2018-09-22T13:51:49.401Z,100511.27
2018-09-22T13:54:20.478Z,100521.13
2018-09-22T13:56:51.452Z,100516.74
2018-09-22T13:59:22.545Z,100491.44
2018-09-22T14:01:53.494Z,100502.92
2018-09-22T14:04:24.634Z,100515.09
2018-09-22T14:06:55.497Z,100522.05
2018-09-22T14:10:37.587Z,100506.46
2018-09-22T14:13:08.846Z,100496.66
2018-09-22T14:15:39.696Z,100491.59
2018-09-22T14:18:10.542Z,100486.05
2018-09-22T14:20:41.554Z,100493.23
2018-09-22T14:23:12.514Z,100482.47
2018-09-22T14:25:43.496Z,100465.13
2018-09-22T14:28:14.476Z,100463.30
2018-09-22T14:30:45.469Z,100461.97
2018-09-22T14:33:16.440Z,100465.59
2018-09-22T14:35:47.498Z,100470.00
2018-09-22T14:38:18.418Z,100451.34
2018-09-22T14:40:49.448Z,100462.23
2018-09-22T14:43:20.512Z,100464.95
2018-09-22T14:45:51.446Z,100458.92
2018-09-22T14:48:22.518Z,100455.82
2018-09-22T14:50:53.515Z,100460.68
2018-09-22T14:53:24.481Z,100454.10
2018-09-22T14:55:55.513Z,100468.66
2018-09-22T14:58:26.518Z,100458.88
2018-09-22T15:00:57.464Z,100465.39
2018-09-22T15:03:28.500Z,100470.20
2018-09-22T15:05:59.493Z,100473.47
2018-09-22T15:08:30.446Z,100473.66
2018-09-22T15:11:01.512Z,100466.55
2018-09-22T15:13:32.464Z,100467.61
2018-09-22T15:16:03.593Z,100465.30
2018-09-22T15:18:34.526Z,100449.16
2018-09-22T15:21:05.627Z,100438.63
2018-09-22T15:23:36.594Z,100430.84
2018-09-22T15:26:07.494Z,100427.94
2018-09-22T15:28:38.559Z,100425.25
2018-09-22T15:31:09.526Z,100421.19
2018-09-22T15:33:40.515Z,100418.08
2018-09-22T15:36:11.564Z,100406.04
2018-09-22T15:38:42.492Z,100400.67
2018-09-22T15:41:13.489Z,100412.55
2018-09-22T15:43:44.477Z,100407.06
2018-09-22T15:46:15.501Z,100412.88
2018-09-22T15:48:46.485Z,100408.72
2018-09-22T15:51:18.301Z,100407.01
2018-09-22T15:53:49.364Z,100413.53
2018-09-22T15:56:20.390Z,100403.97
2018-09-22T15:58:51.502Z,100405.19
2018-09-22T16:01:22.506Z,100410.67
2018-09-22T16:03:53.453Z,100402.21
2018-09-22T16:06:24.506Z,100404.71
2018-09-22T16:08:55.470Z,100410.91
2018-09-22T16:11:26.505Z,100414.25
2018-09-22T16:13:57.491Z,100416.58
2018-09-22T16:16:28.458Z,100424.63
2018-09-22T16:18:59.497Z,100421.95
2018-09-22T16:21:30.565Z,100424.78
2018-09-22T16:24:01.678Z,100442.68
2018-09-22T16:26:32.567Z,100443.48
2018-09-22T16:29:03.488Z,100432.81
2018-09-22T16:31:34.496Z,100434.34
2018-09-22T16:34:05.469Z,100428.14
2018-09-22T16:36:36.488Z,100435.31
2018-09-22T16:39:09.904Z,100444.83
2018-09-22T16:41:41.186Z,100442.25
2018-09-22T16:44:12.362Z,100449.09
2018-09-22T16:46:43.373Z,100457.08
2018-09-22T16:49:14.448Z,100458.89
2018-09-22T16:51:45.566Z,100464.36
2018-09-22T16:54:16.492Z,100469.33
2018-09-22T16:56:47.523Z,100474.75
2018-09-22T16:59:18.553Z,100471.73
2018-09-22T17:01:49.525Z,100480.17
2018-09-22T17:04:20.518Z,100488.73
2018-09-22T17:06:51.472Z,100490.19
2018-09-22T17:09:22.484Z,100482.91
2018-09-22T17:11:53.490Z,100492.42
2018-09-22T17:14:24.504Z,100497.31
2018-09-22T17:16:55.449Z,100486.92
2018-09-22T17:19:26.477Z,100494.12
2018-09-22T17:21:57.512Z,100493.72
2018-09-22T17:24:28.474Z,100497.83
2018-09-22T17:26:59.480Z,100490.05
2018-09-22T17:29:30.580Z,100493.92
2018-09-22T17:32:01.569Z,100493.36
2018-09-22T17:34:32.521Z,100498.16
2018-09-22T17:37:03.545Z,100496.71
2018-09-22T17:39:34.483Z,100492.86
2018-09-22T17:42:05.542Z,100501.55
2018-09-22T17:44:36.512Z,100507.94
2018-09-22T17:47:07.541Z,100503.16
2018-09-22T17:49:38.589Z,100498.43
2018-09-22T17:52:09.285Z,100490.70
2018-09-22T17:54:40.345Z,100495.19
2018-09-22T17:57:11.400Z,100494.28
2018-09-22T17:59:42.508Z,100505.37
2018-09-22T18:02:13.519Z,100500.80
2018-09-22T18:04:44.496Z,100501.91
2018-09-22T18:07:15.545Z,100502.23
2018-09-22T18:09:46.558Z,100500.73
2018-09-22T18:12:17.499Z,100508.77
2018-09-22T18:14:48.531Z,100506.31
2018-09-22T18:17:19.517Z,100501.19
2018-09-22T18:19:50.473Z,100498.50
2018-09-22T18:22:21.465Z,100490.28
2018-09-22T18:24:52.462Z,100499.44
2018-09-22T18:27:23.481Z,100508.52
2018-09-22T18:29:54.550Z,100509.36
2018-09-22T18:32:26.024Z,100502.11
2018-09-22T18:34:57.346Z,100503.05
2018-09-22T18:37:28.417Z,100505.70
2018-09-22T18:39:59.551Z,100496.72
2018-09-22T18:42:30.518Z,100509.66
2018-09-22T18:45:01.499Z,100511.45
2018-09-22T18:47:32.518Z,100499.67
2018-09-22T18:50:03.506Z,100513.31
2018-09-22T18:52:34.533Z,100499.84
2018-09-22T18:55:05.609Z,100487.73
2018-09-22T18:57:36.549Z,100495.15
2018-09-22T19:00:07.656Z,100480.78
2018-09-22T19:02:38.579Z,100488.59
2018-09-22T19:05:09.493Z,100494.09
2018-09-22T19:07:40.483Z,100505.54
2018-09-22T19:12:30.394Z,100510.44
2018-09-22T19:15:35.544Z,100501.91
2018-09-22T19:18:11.034Z,100498.80
2018-09-22T19:20:52.396Z,100498.05
2018-09-22T19:23:27.014Z,100508.03
2018-09-22T19:26:16.331Z,100503.41
2018-09-22T19:28:51.015Z,100497.92
2018-09-22T19:31:25.717Z,100499.19
2018-09-22T19:34:01.590Z,100492.30
2018-09-22T19:36:40.438Z,100488.31
2018-09-22T19:39:19.821Z,100493.78
2018-09-22T19:41:55.578Z,100485.56
2018-09-22T19:44:30.485Z,100499.23
2018-09-22T19:47:08.022Z,100500.47
2018-09-22T19:49:46.054Z,100494.27
2018-09-22T19:52:20.841Z,100482.75
2018-09-22T19:54:51.593Z,100482.33
2018-09-22T19:57:22.525Z,100491.88
2018-09-22T19:59:53.453Z,100504.82
2018-09-22T20:02:24.565Z,100490.06
2018-09-22T20:04:55.497Z,100479.73
2018-09-22T20:07:26.507Z,100481.45
2018-09-22T20:09:57.503Z,100480.42
2018-09-22T20:12:28.472Z,100493.84
2018-09-22T20:14:59.533Z,100490.88
2018-09-22T20:17:30.569Z,100488.31
2018-09-22T20:20:01.488Z,100480.06
2018-09-22T20:22:32.513Z,100484.90
2018-09-22T20:25:03.502Z,100481.99
2018-09-22T20:27:34.530Z,100480.27
2018-09-22T20:30:05.546Z,100489.19
2018-09-22T20:32:36.561Z,100488.41
2018-09-22T20:35:07.539Z,100483.08
2018-09-22T20:37:38.490Z,100476.82
2018-09-22T20:40:09.489Z,100473.08
2018-09-22T20:42:40.508Z,100480.52
2018-09-22T20:45:11.562Z,100478.94
2018-09-22T20:47:42.568Z,100476.09
2018-09-22T20:50:13.514Z,100471.47
2018-09-22T20:52:44.492Z,100467.57
2018-09-22T20:55:15.495Z,100469.62
2018-09-22T20:57:46.503Z,100473.67
2018-09-22T21:00:17.498Z,100466.57
2018-09-22T21:02:48.514Z,100463.12
2018-09-22T21:05:19.474Z,100464.69
2018-09-22T21:07:50.461Z,100477.15
2018-09-22T21:10:21.488Z,100472.38
2018-09-22T21:12:52.437Z,100476.75
2018-09-22T21:15:23.457Z,100467.67
2018-09-22T21:17:54.457Z,100467.37
2018-09-22T21:20:25.501Z,100468.94
2018-09-22T21:22:56.464Z,100483.08
2018-09-22T21:25:27.480Z,100480.15
2018-09-22T21:27:58.467Z,100477.15
2018-09-22T21:30:29.481Z,100464.63
2018-09-22T21:33:00.488Z,100449.73
2018-09-22T21:35:31.460Z,100448.66
2018-09-22T21:38:02.460Z,100458.64
2018-09-22T21:40:34.223Z,100458.34
2018-09-22T21:43:05.338Z,100456.61
2018-09-22T21:45:36.420Z,100456.80
2018-09-22T21:48:07.472Z,100459.59
2018-09-22T21:50:38.481Z,100460.04
2018-09-22T21:53:09.467Z,100440.59
2018-09-22T21:55:40.473Z,100444.05
2018-09-22T21:58:11.491Z,100449.58
2018-09-22T22:00:42.477Z,100444.27
2018-09-22T22:03:13.505Z,100446.94
2018-09-22T22:05:44.500Z,100442.70
2018-09-22T22:08:15.761Z,100435.19
2018-09-22T22:10:47.346Z,100431.84
2018-09-22T22:13:18.345Z,100426.13
2018-09-22T22:15:49.348Z,100434.67
2018-09-22T22:18:20.395Z,100430.03
2018-09-22T22:20:51.485Z,100420.98
2018-09-22T22:23:22.858Z,100423.53
2018-09-22T22:25:53.573Z,100428.48
2018-09-22T22:28:24.509Z,100431.00
2018-09-22T22:30:55.445Z,100428.93
2018-09-22T22:33:26.459Z,100429.18
2018-09-22T22:35:57.485Z,100435.91
2018-09-22T22:38:28.427Z,100430.03
2018-09-22T22:40:59.519Z,100426.27
2018-09-22T22:43:30.413Z,100428.56
2018-09-22T22:46:01.482Z,100429.11
2018-09-22T22:48:32.460Z,100420.11
2018-09-22T22:51:03.453Z,100416.39
2018-09-22T22:53:34.417Z,100417.75
2018-09-22T22:56:05.628Z,100410.04
2018-09-22T22:58:36.831Z,100403.14
2018-09-22T23:01:08.716Z,100407.60
2018-09-22T23:03:39.533Z,100413.77
2018-09-22T23:06:10.497Z,100412.48
2018-09-22T23:08:41.448Z,100412.77
2018-09-22T23:11:12.456Z,100412.21
2018-09-22T23:13:43.561Z,100402.47
2018-09-22T23:16:14.464Z,100394.86
2018-09-22T23:18:45.436Z,100398.16
2018-09-22T23:21:16.478Z,100397.63
2018-09-22T23:23:47.440Z,100403.10
2018-09-22T23:26:18.456Z,100399.41
2018-09-22T23:28:49.453Z,100409.93
2018-09-22T23:31:20.490Z,100404.16
2018-09-22T23:33:51.459Z,100402.91
2018-09-22T23:36:22.426Z,100400.27
2018-09-22T23:38:53.457Z,100389.61
2018-09-22T23:41:24.517Z,100395.80
2018-09-22T23:43:55.398Z,100392.03
2018-09-22T23:46:26.377Z,100389.04
2018-09-22T23:48:57.389Z,100385.83
2018-09-22T23:51:28.465Z,100380.86
2018-09-22T23:53:59.433Z,100383.64
2018-09-22T23:56:30.431Z,100385.73
2018-09-22T23:59:01.405Z,100374.23
